Loging...

KPDC, Korea Polar Data Center

Korea Polar Data Center Scientific observations and results from Antarctica shall
be exchanged and made freely available

Browse

Science Keywords

  1. EARTH SCIENCE
  2. > Oceans

Search 23,195 data out of 23,195

Metadata Search Results
No. Title Reg. Date
201 [KOPRI-KPDC-00002752]ARA10B EK60 raw data in the western Arctic Ocean, 2019 2025-02-20
202 [KOPRI-KPDC-00002751]ARA11B EK60 raw data in the western Arctic Ocean, 2020 2025-02-20
203 [KOPRI-KPDC-00002750]ARA15A EK80 raw data in the western Arctic Ocean, 2024 2025-02-20
204 [KOPRI-KPDC-00002741]Chlorophyll-a concentrations from moored fluorometers in the Korean Arctic Mooring System in 2022, the north of Chukchi Sea 2025-02-07
205 [KOPRI-KPDC-00002740]Gravity Core from Antarctic ROSS Sea (RS15-GC72) 2025-01-21
206 [KOPRI-KPDC-00002739]Gravity Core from Antarctic ROSS Sea (RS15-GC71) 2025-01-21
207 [KOPRI-KPDC-00002624]Continuous monitoring of pCO2 and it relevant parameters in the coast of the Jang Bogo Station, Antarctica, in 2023 2024-12-23
208 [KOPRI-KPDC-00002623]Continuous monitoring of pCO2 and it relevant parameters in the coast of the Jang Bogo Station, Antarctica, in 2022 2024-12-23
209 [KOPRI-KPDC-00002622]Continuous monitoring of pCO2 and it relevant parameters in the coast of the Jang Bogo Station, Antarctica, in 2020 2024-12-23
210 [KOPRI-KPDC-00002688]Gravity Core from Antarctic ROSS Sea (RS15-GC64) 2024-12-20
211 [KOPRI-KPDC-00002693]Gravity Core from Antarctic ROSS Sea (RS15-GC70) 2024-12-20
212 [KOPRI-KPDC-00002692]Gravity Core from Antarctic ROSS Sea (RS15-GC69) 2024-12-20
213 [KOPRI-KPDC-00002691]Gravity Core from Antarctic ROSS Sea (RS15-GC68) 2024-12-20
214 [KOPRI-KPDC-00002690]Gravity Core from Antarctic ROSS Sea (RS15-GC67) 2024-12-20
215 [KOPRI-KPDC-00002689]Gravity Core from Antarctic ROSS Sea (RS15-GC65) 2024-12-20
216 [KOPRI-KPDC-00002685]ARA15B Hydrocasting observation of conductivity, temperature, and depth (CTD) 2024-12-10
217 [KOPRI-KPDC-00002686]2024 Arctic Araon Cruise (ARA15B) - Locations of sediment cores (multiple and gravity cores) 2024-12-03
218 [KOPRI-KPDC-00002684]Inorganic carbon parameters (TA & pH) in the Arctic Ocean (ARA08A & ARA08B) 2024-11-26
219 [KOPRI-KPDC-00002674]CTD profiles observed in the Terra Nova Bay, Ross Sea, in December 2023 (ANA14A) 2024-11-13
220 [KOPRI-KPDC-00002671]ARA15B Sparker multi-channel seismic data 2024-11-13
221 [KOPRI-KPDC-00002670]ARA15B Sub-bottom profiler (SBP) data 2024-11-13
222 [KOPRI-KPDC-00002055]Gravity Core from Antarctic Amundsen Sea (AM22-GC10B) 2024-10-28
223 [KOPRI-KPDC-00002662]Hydroacoustic data in Pine Island Bay, Amundsen sea (2020~2022) 2024-10-24
224 [KOPRI-KPDC-00002663]Hydroacoustic data in Dotson ice shelf region, Amundsen sea 2024-10-24
225 [KOPRI-KPDC-00002661]Hydroacoustic data in Terra Nova Bay, 2023 2024-10-23
226 [KOPRI-KPDC-00002642]Relationship between sea surface temperature and sea-ice parameters in the Arctic region 2024-10-16
227 [KOPRI-KPDC-00002634]Prediction of annual timeseries of surface chlorophyll anomaly in the Beaufort, East Siberian, and Kara Seas 2024-10-16
228 [KOPRI-KPDC-00001188]Gravity Core from Antarctic ROSS Sea (RS19-GC06) 2024-10-16
229 [KOPRI-KPDC-00002329]Gravity core from Antarctic Ross Sea (RS23-GC13) 2024-10-16
230 [KOPRI-KPDC-00001192]Gravity Core from Antarctic ROSS Sea (RS19-GC02B) 2024-10-16
231 [KOPRI-KPDC-00002619]Daily carbon uptake rate of phytoplankton in the Marian Cove, Antarctica (2023-24) 2024-10-15
232 [KOPRI-KPDC-00002628]Vertical variation of sea Ice algae biomass in the Jangbogo Station, November 2023 2024-10-15
233 [KOPRI-KPDC-00002599]ANA14C Sub-bottom profiler (SBP) data on the Southern Drygalski Ice Tongue, Ross Sea 2024-10-14
234 [KOPRI-KPDC-00002588]Temporal variation of marine phytoplankton in the surface water of the Antarctic Jang Bogo Station in Terra Nova Bay, January 2024- June 2024 2024-10-14
235 [KOPRI-KPDC-00002587]Temporal variation of phytoplankton in the surface water of Marian Cove, King George Island, Antarctica, January 2024 - June 2024 2024-10-10
236 [KOPRI-KPDC-00002565]Multibeam data of East Siberian Sea and Chukchi sea in Arctic ocean, 2024 / ARA15B 2024-10-08
237 [KOPRI-KPDC-00002563]Ocean current data near Campbell Glacier (2023) 2024-10-07
238 [KOPRI-KPDC-00002562]Ocean temperature data near Campbell Glacier (2023) 2024-10-07
239 [KOPRI-KPDC-00002561]Marine environmental data near Campbell Glacier (2023) 2024-10-07
240 [KOPRI-KPDC-00002560]Gondwana biologger data (2022-2023) 2024-10-07
241 [KOPRI-KPDC-00002554]Gravity Core from Antarctic Bellingshausen Sea (BS17-BC18) 2024-09-04
242 [KOPRI-KPDC-00002553]Gravity Core from Antarctic Bellingshausen Sea (BS17-BC12) 2024-09-04
243 [KOPRI-KPDC-00002552]Gravity Core from Antarctic Bellingshausen Sea (BS17-BC17) 2024-09-04
244 [KOPRI-KPDC-00002551]Gravity Core from Antarctic Bellingshausen Sea (BS17-BC16) 2024-09-04
245 [KOPRI-KPDC-00002550]Gravity Core from Antarctic Bellingshausen Sea (BS17-BC08) 2024-09-04
246 [KOPRI-KPDC-00002549]Gravity Core from Antarctic Bellingshausen Sea (BS17-BC11) 2024-09-04
247 [KOPRI-KPDC-00002514]Gravity Core from Antarctic ROSS Sea (RS15-GC16A) 2024-08-14
248 [KOPRI-KPDC-00002539]Gravity Core from Antarctic ROSS Sea (RS15-GC57) 2024-08-13
249 [KOPRI-KPDC-00002517]Gravity Core from Antarctic ROSS Sea (RS15-GC27) 2024-08-13
250 [KOPRI-KPDC-00002515]Gravity Core from Antarctic ROSS Sea (RS15-GC16B) 2024-08-13
251 [KOPRI-KPDC-00002516]Gravity Core from Antarctic ROSS Sea (RS15-GC26) 2024-08-13
252 [KOPRI-KPDC-00002548]Gravity Core from Antarctic peninsula Sea (WAP13-GC02B) 2024-08-13
253 [KOPRI-KPDC-00002547]Gravity Core from Antarctic Amundsen Sea (AM12-GC03) 2024-08-13
254 [KOPRI-KPDC-00002546]Gravity Core from Antarctic Amundsen Sea (AM12-GC02) 2024-08-13
255 [KOPRI-KPDC-00002524]Gravity Core from Antarctic ROSS Sea (RS24-GC01) 2024-08-13
256 [KOPRI-KPDC-00002525]Gravity Core from Antarctic ROSS Sea (RS24-GC02) 2024-08-13
257 [KOPRI-KPDC-00002526]Gravity Core from Antarctic ROSS Sea (RS24-GC03) 2024-08-13
258 [KOPRI-KPDC-00002527]Gravity Core from Antarctic ROSS Sea (RS24-GC04) 2024-08-13
259 [KOPRI-KPDC-00002528]Gravity Core from Antarctic ROSS Sea (RS24-GC05) 2024-08-13
260 [KOPRI-KPDC-00002536]Gravity Core from Antarctic ROSS Sea (RS24-GC07) 2024-08-13
261 [KOPRI-KPDC-00002540]Gravity Core from Antarctic ROSS Sea (RS15-GC62) 2024-08-13
262 [KOPRI-KPDC-00002545]Gravity Core from Antarctic Amundsen Sea (AM12-GC01) 2024-08-13
263 [KOPRI-KPDC-00002544]Gravity Core from Antarctic ROSS Sea (RS14-GC04) 2024-08-13
264 [KOPRI-KPDC-00002542]Gravity Core from Antarctic ROSS Sea (RS14-GC02) 2024-08-13
265 [KOPRI-KPDC-00002543]Gravity Core from Antarctic ROSS Sea (RS14-GC03) 2024-08-13
266 [KOPRI-KPDC-00002541]Gravity core from Antarctic Ross Sea (RS14-GC01) 2024-08-13
267 [KOPRI-KPDC-00002328]Gravity core from Antarctic Ross Sea (RS23-GC12) 2024-08-13
268 [KOPRI-KPDC-00002323]Gravity core from Antarctic Ross Sea (RS23-GC08) 2024-08-13
269 [KOPRI-KPDC-00002522]Gravity Core from Antarctic Southern Ocean (RS15-GC49) 2024-08-13
270 [KOPRI-KPDC-00002322]Gravity core from Antarctic Ross Sea (RS23-GC07) 2024-08-13
271 [KOPRI-KPDC-00002523]Gravity Core from Antarctic Southern Ocean (RS15-GC53) 2024-08-13
272 [KOPRI-KPDC-00002538]Gravity Core from Antarctic Southern Ocean (RS15-GC55) 2024-08-13
273 [KOPRI-KPDC-00002521]Gravity Core from Antarctic Southern Ocean (Adare Trough) (RS15-GC46) 2024-08-13
274 [KOPRI-KPDC-00002520]Gravity Core from Antarctic Southern Ocean (RS15-GC44) 2024-08-13
275 [KOPRI-KPDC-00002519]Gravity Core from Antarctic Southern Ocean (W.Iselin Bank) (RS15-GC42) 2024-08-13
276 [KOPRI-KPDC-00002518]Gravity Core from Antarctic Southern Ocean (Iselin Bank) (RS15-GC40) 2024-08-13
277 [KOPRI-KPDC-00002537]Gravity Core from Antarctic Southern Ocean (RS15-GC54) 2024-08-13
278 [KOPRI-KPDC-00002535]Gravity Core from Antarctic Bellingshausen Sea (BS17-GC17) 2024-08-07
279 [KOPRI-KPDC-00002534]Gravity Core from Antarctic Bellingshausen Sea (BS17-GC16) 2024-08-07
280 [KOPRI-KPDC-00002532]Gravity Core from Antarctic Bellingshausen Sea (BS17-GC12) 2024-08-07
281 [KOPRI-KPDC-00002533]Gravity Core from Antarctic Bellingshausen Sea (BS17-GC15) 2024-08-07
282 [KOPRI-KPDC-00002531]Gravity Core from Antarctic Bellingshausen Sea (BS17-GC11) 2024-08-07
283 [KOPRI-KPDC-00002530]Gravity Core from Antarctic Bellingshausen Sea (BS17-GC09) 2024-08-07
284 [KOPRI-KPDC-00002529]Gravity Core from Antarctic Bellingshausen Sea (BS17-GC08) 2024-08-07
285 [KOPRI-KPDC-00002321]Gravity core from Antarctic Ross Sea (RS23-GC06) 2024-08-07
286 [KOPRI-KPDC-00002282]Gravity core from Antarctic Ross Sea (RS23-GC05) 2024-08-07
287 [KOPRI-KPDC-00002279]Gravity core from Antarctic Ross Sea (RS23-GC04) 2024-08-07
288 [KOPRI-KPDC-00002274]Gravity core from Antarctic Ross Sea (RS23-GC02) 2024-08-07
289 [KOPRI-KPDC-00002270]Gravity core from Antarctic Ross Sea (RS23-GC01) 2024-08-07
290 [KOPRI-KPDC-00002056]Gravity Core from Antarctic Amundsen Sea (AM22-GC13) 2024-08-06
291 [KOPRI-KPDC-00002054]Gravity Core from Antarctic Amundsen Sea (AM22-GC09) 2024-08-05
292 [KOPRI-KPDC-00002053]Gravity Core from Antarctic Amundsen Sea (AM22-GC08) 2024-08-05
293 [KOPRI-KPDC-00002052]Gravity Core from Antarctic Amundsen Sea (AM22-GC07B) 2024-08-05
294 [KOPRI-KPDC-00002051]Gravity Core from Antarctic Amundsen Sea (AM22-GC06) 2024-08-05
295 [KOPRI-KPDC-00002049]Gravity Core from Antarctic Amundsen Sea (AM22-GC05) 2024-08-05
296 [KOPRI-KPDC-00002048]Gravity Core from Antarctic Amundsen Sea (AM22-GC04) 2024-08-05
297 [KOPRI-KPDC-00002047]Gravity Core from Antarctic Amundsen Sea (AM22-GC03B) 2024-08-05
298 [KOPRI-KPDC-00002046]Gravity Core from Antarctic Amundsen Sea (AM22-GC02) 2024-08-05
299 [KOPRI-KPDC-00002039]Gravity core from Antarctic Amundsen Sea (AM22-GC01) 2024-08-05
300 [KOPRI-KPDC-00001839]Gravity Core from Antarctic ROSS Sea (RS21-GC01) 2024-08-05